createdAt,value
2019-02-25T00:00:15.851Z,6.77
2019-02-25T00:02:46.029Z,7.13
2019-02-25T00:05:17.087Z,6.67
2019-02-25T00:07:49.561Z,5.97
2019-02-25T00:10:19.461Z,6.50
2019-02-25T00:12:50.013Z,6.83
2019-02-25T00:15:20.133Z,6.37
2019-02-25T00:17:52.046Z,6.60
2019-02-25T00:20:24.190Z,6.70
2019-02-25T00:22:55.259Z,6.43
2019-02-25T00:25:24.593Z,7.07
2019-02-25T00:27:57.037Z,6.97
2019-02-25T00:30:27.814Z,7.10
2019-02-25T00:32:58.857Z,7.20
2019-02-25T00:35:29.995Z,7.47
2019-02-25T00:38:01.206Z,7.50
2019-02-25T00:40:31.239Z,7.13
2019-02-25T00:43:02.897Z,7.10
2019-02-25T00:45:32.554Z,7.00
2019-02-25T00:48:03.357Z,7.20
2019-02-25T00:50:34.413Z,7.60
2019-02-25T00:53:05.213Z,8.20
2019-02-25T00:55:36.234Z,8.27
2019-02-25T00:58:07.081Z,8.37
2019-02-25T01:00:36.861Z,7.87
2019-02-25T01:03:07.477Z,8.67
2019-02-25T01:05:38.117Z,8.27
2019-02-25T01:08:07.966Z,8.63
2019-02-25T01:10:39.018Z,9.30
2019-02-25T01:13:12.033Z,8.30
2019-02-25T01:15:44.115Z,8.43
2019-02-25T01:18:14.877Z,8.47
2019-02-25T01:20:45.878Z,8.60
2019-02-25T01:23:16.070Z,7.63
2019-02-25T01:25:46.873Z,7.83
2019-02-25T01:28:16.658Z,8.87
2019-02-25T01:30:46.424Z,8.60
2019-02-25T01:33:18.181Z,8.70
2019-02-25T01:35:48.273Z,8.73
2019-02-25T01:38:19.353Z,8.80
2019-02-25T01:40:51.194Z,8.20
2019-02-25T01:43:22.741Z,8.27
2019-02-25T01:45:55.364Z,8.77
2019-02-25T01:48:25.981Z,8.57
2019-02-25T01:50:57.637Z,8.93
2019-02-25T01:53:29.038Z,8.20
2019-02-25T01:55:58.937Z,9.10
2019-02-25T01:58:29.585Z,8.53
2019-02-25T02:01:00.225Z,8.67
2019-02-25T02:03:32.597Z,8.70
2019-02-25T02:06:03.794Z,8.30
2019-02-25T02:08:36.940Z,8.40
2019-02-25T02:11:06.809Z,7.60
2019-02-25T02:13:38.390Z,7.50
2019-02-25T02:16:11.049Z,8.10
2019-02-25T02:18:43.059Z,8.97
2019-02-25T02:21:15.565Z,8.03
2019-02-25T02:23:45.721Z,7.80
2019-02-25T02:26:16.796Z,7.40
2019-02-25T02:28:46.656Z,7.67
2019-02-25T02:31:17.388Z,8.00
2019-02-25T02:33:48.958Z,7.93
2019-02-25T02:36:19.042Z,7.43
2019-02-25T02:38:49.865Z,7.30
2019-02-25T02:41:19.626Z,7.33
2019-02-25T02:43:50.174Z,7.00
2019-02-25T02:46:21.482Z,7.63
2019-02-25T02:48:57.298Z,7.30
2019-02-25T02:51:28.077Z,6.87
2019-02-25T02:53:59.001Z,7.67
2019-02-25T02:56:31.780Z,7.17
2019-02-25T02:59:02.698Z,6.33
2019-02-25T03:01:32.475Z,6.80
2019-02-25T03:04:03.177Z,6.80
2019-02-25T03:06:34.135Z,6.43
2019-02-25T03:09:05.674Z,7.87
2019-02-25T03:11:34.998Z,6.80
2019-02-25T03:14:05.210Z,7.07
2019-02-25T03:16:36.083Z,7.80
2019-02-25T03:19:06.678Z,7.80
2019-02-25T03:21:37.605Z,7.67
2019-02-25T03:24:08.346Z,8.13
2019-02-25T03:26:39.776Z,7.80
2019-02-25T03:29:11.560Z,8.20
2019-02-25T03:31:42.654Z,9.37
2019-02-25T03:34:12.579Z,8.37
2019-02-25T03:36:43.193Z,7.77
2019-02-25T03:39:13.877Z,8.27
2019-02-25T03:41:46.322Z,9.07
2019-02-25T03:44:16.046Z,8.63
2019-02-25T03:46:46.999Z,9.03
2019-02-25T03:49:19.038Z,8.73
2019-02-25T03:51:50.742Z,9.30
2019-02-25T03:54:22.419Z,9.13
2019-02-25T03:56:54.899Z,9.10
2019-02-25T03:59:25.814Z,9.10
2019-02-25T04:01:55.681Z,8.20
2019-02-25T04:04:26.511Z,8.63
2019-02-25T04:06:57.964Z,9.03
2019-02-25T04:09:28.779Z,8.57
2019-02-25T04:11:58.461Z,8.70
2019-02-25T04:14:30.108Z,7.90
2019-02-25T04:17:01.030Z,7.80
2019-02-25T04:19:32.709Z,7.93
2019-02-25T04:22:03.526Z,8.00
2019-02-25T04:24:34.135Z,7.90
2019-02-25T04:27:03.939Z,8.30
2019-02-25T04:29:34.654Z,7.80
2019-02-25T04:32:06.295Z,7.50
2019-02-25T04:34:37.313Z,7.83
2019-02-25T04:37:08.149Z,7.23
2019-02-25T04:39:40.314Z,8.07
2019-02-25T04:42:11.146Z,6.80
2019-02-25T04:44:42.099Z,7.13
2019-02-25T04:47:15.757Z,8.13
2019-02-25T04:49:46.778Z,7.30
2019-02-25T04:52:17.610Z,7.73
2019-02-25T04:54:47.365Z,7.80
2019-02-25T04:57:19.678Z,6.87
2019-02-25T04:59:50.369Z,7.20
2019-02-25T05:02:22.941Z,8.10
2019-02-25T05:04:56.275Z,8.13
2019-02-25T05:07:27.106Z,8.63
2019-02-25T05:09:59.127Z,7.97
2019-02-25T05:12:30.744Z,7.97
2019-02-25T05:15:01.869Z,8.30
2019-02-25T05:17:32.701Z,8.37
2019-02-25T05:20:04.505Z,7.63
2019-02-25T05:22:37.689Z,8.10
2019-02-25T05:25:09.391Z,7.60
2019-02-25T05:27:40.181Z,7.97
2019-02-25T05:30:13.494Z,7.23
2019-02-25T05:32:44.468Z,8.70
2019-02-25T05:35:15.789Z,7.47
2019-02-25T05:37:47.044Z,7.40
2019-02-25T05:40:18.399Z,7.40
2019-02-25T05:42:49.938Z,7.13
2019-02-25T05:45:20.781Z,6.17
2019-02-25T05:47:51.690Z,7.23
2019-02-25T05:50:23.545Z,7.43
2019-02-25T05:52:54.693Z,7.37
2019-02-25T05:55:25.801Z,8.00
2019-02-25T05:57:57.811Z,7.20
2019-02-25T06:00:35.521Z,6.83
2019-02-25T06:03:06.977Z,7.33
2019-02-25T06:05:38.717Z,7.47
2019-02-25T06:08:09.478Z,7.33
2019-02-25T06:10:40.507Z,6.77
2019-02-25T06:13:11.329Z,6.83
2019-02-25T06:15:43.054Z,7.03
2019-02-25T06:18:14.740Z,6.73
2019-02-25T06:20:44.449Z,6.00
2019-02-25T06:23:15.454Z,6.20
2019-02-25T06:25:45.210Z,5.93
2019-02-25T06:28:15.854Z,6.53
2019-02-25T06:30:46.377Z,6.20
2019-02-25T06:33:17.041Z,5.57
2019-02-25T06:35:48.630Z,5.93
2019-02-25T06:38:19.448Z,6.10
2019-02-25T06:40:50.277Z,5.73
2019-02-25T06:43:20.438Z,5.77
2019-02-25T06:45:50.629Z,5.30
2019-02-25T06:48:21.379Z,6.33
2019-02-25T06:50:52.396Z,6.10
2019-02-25T06:53:22.210Z,5.70
2019-02-25T06:55:52.254Z,5.47
2019-02-25T06:58:23.202Z,6.80
2019-02-25T07:00:54.438Z,6.43
2019-02-25T07:03:26.826Z,6.17
2019-02-25T07:05:59.325Z,6.73
2019-02-25T07:08:35.659Z,6.50
2019-02-25T07:11:07.241Z,6.73
2019-02-25T07:13:38.725Z,6.97
2019-02-25T07:16:29.334Z,7.43
2019-02-25T07:19:05.846Z,7.40
2019-02-25T07:21:37.542Z,6.87
2019-02-25T07:24:24.285Z,8.63
2019-02-25T07:27:02.710Z,7.63
2019-02-25T07:29:51.639Z,7.63
2019-02-25T07:32:40.740Z,7.80
2019-02-25T07:35:15.967Z,7.70
2019-02-25T07:38:00.777Z,7.67
2019-02-25T07:40:48.421Z,8.17
2019-02-25T07:43:23.290Z,8.00
2019-02-25T07:46:13.566Z,8.23
2019-02-25T07:48:53.357Z,6.90
2019-02-25T07:51:27.626Z,7.40
2019-02-25T07:53:59.822Z,7.07
2019-02-25T07:56:32.396Z,6.80
2019-02-25T07:59:10.777Z,6.97
2019-02-25T08:01:43.332Z,7.97
2019-02-25T08:04:29.964Z,8.47
2019-02-25T08:07:05.233Z,7.83
2019-02-25T08:09:50.466Z,8.17
2019-02-25T08:12:29.910Z,7.77
2019-02-25T08:15:01.321Z,7.90
2019-02-25T08:17:36.629Z,8.20
2019-02-25T08:20:18.006Z,7.90
2019-02-25T08:22:49.501Z,8.73
2019-02-25T08:25:26.450Z,8.90
2019-02-25T08:28:00.630Z,9.13
2019-02-25T08:30:51.198Z,7.93
2019-02-25T08:33:34.697Z,9.30
2019-02-25T08:36:29.945Z,8.60
2019-02-25T08:39:04.106Z,8.80
2019-02-25T08:41:35.722Z,9.40
2019-02-25T08:44:16.686Z,9.80
2019-02-25T08:46:48.137Z,9.33
2019-02-25T08:49:20.402Z,8.87
2019-02-25T08:51:51.361Z,9.97
2019-02-25T08:54:21.381Z,9.73
2019-02-25T08:56:51.634Z,9.67
2019-02-25T08:59:22.682Z,9.80
2019-02-25T09:01:55.214Z,10.30
2019-02-25T09:04:25.357Z,10.87
2019-02-25T09:06:58.926Z,9.67
2019-02-25T09:09:30.560Z,10.70
2019-02-25T09:12:01.534Z,9.80
2019-02-25T09:14:32.426Z,9.80
2019-02-25T09:17:02.503Z,10.63
2019-02-25T09:19:33.658Z,10.00
2019-02-25T09:22:04.421Z,9.47
2019-02-25T09:24:36.712Z,9.60
2019-02-25T09:27:10.834Z,8.87
2019-02-25T09:29:42.049Z,8.43
2019-02-25T09:32:13.602Z,7.80
2019-02-25T09:34:43.511Z,7.20
2019-02-25T09:37:13.278Z,7.37
2019-02-25T09:39:43.981Z,7.00
2019-02-25T09:42:14.706Z,7.00
2019-02-25T09:44:45.758Z,6.73
2019-02-25T09:47:17.398Z,6.37
2019-02-25T09:49:48.557Z,7.10
2019-02-25T09:52:20.602Z,6.60
2019-02-25T09:54:51.738Z,7.03
2019-02-25T09:57:24.237Z,6.50
2019-02-25T09:59:55.021Z,6.27
2019-02-25T10:02:27.907Z,5.37
2019-02-25T10:04:58.174Z,5.77
2019-02-25T10:07:28.994Z,5.70
2019-02-25T10:09:59.649Z,5.97
2019-02-25T10:12:30.733Z,6.37
2019-02-25T10:15:01.870Z,5.90
2019-02-25T10:17:31.266Z,6.60
2019-02-25T10:20:01.918Z,6.43
2019-02-25T10:22:33.872Z,6.30
2019-02-25T10:25:04.206Z,6.03
2019-02-25T10:27:37.712Z,5.33
2019-02-25T10:30:17.495Z,6.40
2019-02-25T10:32:47.573Z,5.57
2019-02-25T10:35:24.883Z,4.83
2019-02-25T10:37:55.697Z,5.30
2019-02-25T10:40:27.386Z,5.73
2019-02-25T10:42:58.178Z,5.53
2019-02-25T10:45:30.280Z,5.40
2019-02-25T10:48:01.389Z,5.23
2019-02-25T10:50:35.827Z,5.00
2019-02-25T10:53:06.377Z,5.17
2019-02-25T10:55:44.934Z,4.67
2019-02-25T10:58:16.193Z,4.60
2019-02-25T11:00:46.348Z,4.60
2019-02-25T11:03:17.849Z,4.77
2019-02-25T11:05:53.870Z,5.03
2019-02-25T11:08:24.725Z,4.70
2019-02-25T11:11:03.249Z,4.70
2019-02-25T11:13:34.649Z,4.90
2019-02-25T11:16:07.342Z,4.50
2019-02-25T11:18:40.553Z,4.77
2019-02-25T11:21:11.666Z,5.00
2019-02-25T11:23:53.359Z,5.00
2019-02-25T11:26:26.663Z,5.23
2019-02-25T11:28:57.194Z,4.37
2019-02-25T11:31:29.907Z,4.47
2019-02-25T11:34:03.049Z,4.57
2019-02-25T11:36:32.914Z,4.50
2019-02-25T11:39:06.768Z,4.30
2019-02-25T11:41:38.674Z,4.87
2019-02-25T11:44:09.018Z,4.43
2019-02-25T11:46:40.392Z,4.27
2019-02-25T11:49:11.414Z,4.03
2019-02-25T11:51:42.530Z,3.73
2019-02-25T11:54:12.726Z,4.63
2019-02-25T11:56:45.015Z,4.70
2019-02-25T11:59:17.531Z,4.53
2019-02-25T12:01:48.646Z,4.50
2019-02-25T12:04:21.165Z,4.00
2019-02-25T12:06:52.165Z,3.97
2019-02-25T12:09:24.586Z,4.37
2019-02-25T12:11:56.625Z,4.57
2019-02-25T12:14:27.766Z,4.67
2019-02-25T12:16:59.436Z,4.80
2019-02-25T12:19:29.734Z,5.10
2019-02-25T12:22:01.109Z,4.53
2019-02-25T12:24:30.980Z,4.60
2019-02-25T12:27:03.271Z,4.53
2019-02-25T12:29:35.670Z,4.30
2019-02-25T12:32:06.867Z,4.57
2019-02-25T12:34:37.845Z,3.70
2019-02-25T12:37:08.015Z,3.60
2019-02-25T12:39:37.391Z,3.10
2019-02-25T12:42:08.726Z,3.40
2019-02-25T12:44:39.607Z,3.40
2019-02-25T12:47:09.742Z,3.30
2019-02-25T12:49:40.793Z,3.50
2019-02-25T12:52:12.566Z,3.30
2019-02-25T12:54:43.154Z,3.40
2019-02-25T12:57:13.237Z,3.60
2019-02-25T12:59:44.489Z,3.57
2019-02-25T13:02:16.896Z,3.40
2019-02-25T13:04:46.708Z,4.03
2019-02-25T13:07:17.374Z,9.83
2019-02-25T13:09:48.201Z,4.00
2019-02-25T13:12:19.248Z,4.00
2019-02-25T13:14:50.989Z,3.90
2019-02-25T13:17:20.645Z,4.10
2019-02-25T13:19:51.693Z,4.23
2019-02-25T13:22:24.240Z,4.43
2019-02-25T13:24:57.434Z,4.20
2019-02-25T13:27:28.270Z,4.27
2019-02-25T13:29:58.961Z,4.03
2019-02-25T13:32:32.520Z,4.17
2019-02-25T13:35:02.389Z,4.50
2019-02-25T13:37:33.129Z,4.13
2019-02-25T13:40:03.296Z,4.10
2019-02-25T13:42:34.326Z,3.70
2019-02-25T13:45:04.799Z,3.77
2019-02-25T13:47:34.859Z,3.90
2019-02-25T13:50:06.910Z,3.97
2019-02-25T13:52:47.222Z,3.90
2019-02-25T13:55:11.624Z,3.70
2019-02-25T13:57:42.433Z,3.83
2019-02-25T14:00:21.530Z,3.57
2019-02-25T14:02:51.370Z,3.60
2019-02-25T14:05:23.150Z,3.77
2019-02-25T14:07:54.084Z,3.83
2019-02-25T14:10:24.979Z,11.10
2019-02-25T14:12:54.701Z,4.37
2019-02-25T14:15:26.586Z,3.50
2019-02-25T14:17:56.923Z,3.37
2019-02-25T14:20:27.645Z,3.90
2019-02-25T14:23:00.636Z,3.70
2019-02-25T14:25:32.567Z,3.60
2019-02-25T14:28:02.972Z,3.70
2019-02-25T14:30:33.546Z,4.10
2019-02-25T14:33:07.953Z,4.10
2019-02-25T14:35:38.683Z,4.00
2019-02-25T14:38:12.373Z,4.80
2019-02-25T14:40:44.852Z,4.27
2019-02-25T14:43:15.631Z,4.23
2019-02-25T14:45:51.761Z,4.43
2019-02-25T14:48:21.072Z,4.33
2019-02-25T14:51:10.794Z,4.30
2019-02-25T14:53:44.146Z,4.50
2019-02-25T14:56:14.689Z,4.87
2019-02-25T14:58:45.567Z,4.53
2019-02-25T15:01:18.035Z,4.50
2019-02-25T15:03:48.525Z,4.30
2019-02-25T15:06:19.462Z,4.77
2019-02-25T15:08:50.303Z,4.23
2019-02-25T15:11:22.697Z,3.80
2019-02-25T15:13:55.880Z,3.87
2019-02-25T15:16:27.642Z,4.10
2019-02-25T15:19:00.607Z,4.13
2019-02-25T15:21:33.406Z,4.00
2019-02-25T15:24:06.289Z,4.00
2019-02-25T15:26:43.005Z,4.10
2019-02-25T15:29:09.341Z,3.80
2019-02-25T15:31:39.284Z,3.90
2019-02-25T15:34:10.972Z,3.70
2019-02-25T15:36:45.617Z,3.73
2019-02-25T15:39:16.922Z,3.70
2019-02-25T15:41:48.680Z,3.80
2019-02-25T15:44:40.374Z,3.40
2019-02-25T15:47:12.879Z,3.50
2019-02-25T15:49:43.363Z,3.83
2019-02-25T15:52:18.849Z,3.80
2019-02-25T15:54:49.518Z,2.93
2019-02-25T15:57:20.631Z,2.70
2019-02-25T15:59:53.873Z,2.93
2019-02-25T16:02:24.661Z,3.00
2019-02-25T16:04:56.463Z,3.10
2019-02-25T16:07:29.756Z,2.83
2019-02-25T16:10:04.941Z,3.50
2019-02-25T16:12:36.100Z,3.43
2019-02-25T16:15:13.707Z,4.07
2019-02-25T16:17:49.592Z,4.57
2019-02-25T16:20:20.001Z,4.60
2019-02-25T16:22:56.317Z,5.10
2019-02-25T16:25:31.687Z,5.77
2019-02-25T16:28:02.154Z,5.50
2019-02-25T16:30:31.210Z,5.00
2019-02-25T16:33:05.023Z,5.57
2019-02-25T16:35:36.818Z,5.43
2019-02-25T16:38:07.639Z,5.13
2019-02-25T16:40:38.380Z,5.87
2019-02-25T16:43:12.688Z,5.57
2019-02-25T16:45:45.303Z,5.80
2019-02-25T16:48:17.267Z,5.90
2019-02-25T16:50:49.222Z,5.40
2019-02-25T16:53:23.136Z,5.60
2019-02-25T16:55:53.128Z,5.60
2019-02-25T16:58:22.903Z,5.23
2019-02-25T17:00:56.216Z,5.23
2019-02-25T17:03:25.075Z,5.70
2019-02-25T17:05:54.842Z,5.43
2019-02-25T17:08:26.066Z,5.80
2019-02-25T17:10:59.998Z,5.60
2019-02-25T17:13:34.743Z,4.97
2019-02-25T17:16:05.162Z,5.70
2019-02-25T17:18:35.746Z,5.73
2019-02-25T17:21:07.599Z,5.83
2019-02-25T17:23:38.814Z,5.60
2019-02-25T17:26:14.508Z,5.53
2019-02-25T17:28:46.271Z,6.37
2019-02-25T17:31:18.557Z,6.33
2019-02-25T17:33:51.348Z,6.20
2019-02-25T17:36:23.408Z,6.00
2019-02-25T17:38:56.137Z,5.97
2019-02-25T17:41:27.910Z,6.17
2019-02-25T17:43:59.230Z,6.07
2019-02-25T17:46:32.571Z,6.00
2019-02-25T17:49:06.207Z,6.63
2019-02-25T17:51:37.338Z,6.87
2019-02-25T17:54:09.768Z,6.83
2019-02-25T17:56:40.864Z,6.80
2019-02-25T17:59:14.573Z,6.13
2019-02-25T18:01:46.815Z,6.83
2019-02-25T18:04:18.398Z,7.50
2019-02-25T18:06:48.171Z,7.90
2019-02-25T18:09:20.360Z,7.03
2019-02-25T18:11:49.964Z,7.00
2019-02-25T18:14:20.646Z,7.67
2019-02-25T18:16:51.669Z,7.40
2019-02-25T18:19:23.063Z,7.67
2019-02-25T18:21:58.161Z,7.30
2019-02-25T18:24:29.555Z,7.33
2019-02-25T18:27:00.810Z,8.20
2019-02-25T18:29:32.642Z,8.57
2019-02-25T18:32:07.629Z,9.30
2019-02-25T18:34:38.645Z,8.50
2019-02-25T18:37:09.298Z,8.60
2019-02-25T18:39:40.657Z,7.83
2019-02-25T18:42:12.069Z,8.23
2019-02-25T18:44:45.345Z,8.13
2019-02-25T18:47:16.874Z,8.77
2019-02-25T18:49:49.995Z,7.93
2019-02-25T18:52:22.196Z,8.83
2019-02-25T18:54:53.970Z,8.87
2019-02-25T18:57:27.354Z,8.50
2019-02-25T18:59:59.763Z,8.83
2019-02-25T19:02:33.418Z,8.43
2019-02-25T19:05:06.686Z,8.13
2019-02-25T19:07:37.994Z,8.83
2019-02-25T19:10:10.580Z,9.10
2019-02-25T19:12:41.546Z,9.23
2019-02-25T19:15:15.251Z,9.57
2019-02-25T19:17:45.847Z,8.50
2019-02-25T19:20:16.726Z,9.10
2019-02-25T19:22:47.922Z,9.37
2019-02-25T19:25:20.825Z,9.50
2019-02-25T19:27:52.694Z,9.50
2019-02-25T19:30:27.823Z,9.30
2019-02-25T19:33:10.616Z,9.97
2019-02-25T19:35:36.044Z,10.53
2019-02-25T19:38:07.853Z,9.37
2019-02-25T19:40:40.543Z,9.27
2019-02-25T19:43:12.090Z,9.83
2019-02-25T19:45:43.310Z,9.70
2019-02-25T19:48:13.749Z,9.97
2019-02-25T19:50:50.974Z,10.00
2019-02-25T19:53:19.405Z,9.87
2019-02-25T19:55:49.170Z,10.07
2019-02-25T19:58:19.941Z,10.13
2019-02-25T20:00:56.119Z,10.43
2019-02-25T20:03:23.865Z,9.40
2019-02-25T20:05:56.372Z,9.13
2019-02-25T20:08:27.306Z,9.77
2019-02-25T20:10:57.089Z,9.03
2019-02-25T20:13:30.027Z,9.17
2019-02-25T20:16:07.945Z,8.53
2019-02-25T20:18:37.587Z,9.30
2019-02-25T20:21:08.161Z,9.23
2019-02-25T20:23:38.030Z,9.60
2019-02-25T20:26:11.324Z,9.90
2019-02-25T20:28:43.436Z,9.47
2019-02-25T20:31:14.912Z,9.00
2019-02-25T20:33:45.858Z,10.03
2019-02-25T20:36:19.220Z,9.10
2019-02-25T20:38:47.833Z,9.13
2019-02-25T20:41:19.994Z,9.57
2019-02-25T20:43:53.952Z,9.17
2019-02-25T20:46:24.463Z,10.20
2019-02-25T20:48:56.121Z,9.87
2019-02-25T20:51:29.844Z,9.53
2019-02-25T20:54:00.431Z,8.83
2019-02-25T20:56:31.116Z,10.17
2019-02-25T20:59:06.171Z,9.87
2019-02-25T21:01:39.514Z,10.33
2019-02-25T21:04:11.902Z,9.77
2019-02-25T21:06:44.128Z,9.60
2019-02-25T21:09:14.982Z,9.87
2019-02-25T21:11:48.337Z,10.27
2019-02-25T21:14:19.113Z,10.00
2019-02-25T21:16:53.621Z,10.23
2019-02-25T21:19:27.317Z,9.60
2019-02-25T21:21:59.670Z,9.87
2019-02-25T21:24:30.933Z,9.53
2019-02-25T21:27:01.489Z,10.30
2019-02-25T21:29:34.838Z,10.70
2019-02-25T21:32:07.489Z,10.57
2019-02-25T21:34:40.018Z,10.90
2019-02-25T21:37:10.826Z,10.63
2019-02-25T21:39:42.849Z,10.30
2019-02-25T21:42:15.407Z,11.00
2019-02-25T21:44:48.639Z,11.57
2019-02-25T21:47:30.756Z,12.57
2019-02-25T21:50:06.758Z,12.63
2019-02-25T21:52:38.782Z,10.90
2019-02-25T21:55:12.182Z,11.50
2019-02-25T21:57:43.004Z,11.73
2019-02-25T22:00:17.060Z,11.77
2019-02-25T22:02:50.907Z,11.70
2019-02-25T22:05:22.012Z,11.77
2019-02-25T22:07:55.388Z,11.70
2019-02-25T22:10:26.945Z,11.77
2019-02-25T22:12:59.349Z,11.50
2019-02-25T22:15:30.289Z,11.87
2019-02-25T22:18:01.772Z,11.40
2019-02-25T22:20:35.650Z,11.57
2019-02-25T22:23:06.204Z,11.50
2019-02-25T22:25:38.188Z,12.30
2019-02-25T22:28:10.003Z,11.87
2019-02-25T22:30:42.806Z,12.77
2019-02-25T22:33:25.045Z,12.30
2019-02-25T22:35:49.175Z,11.87
2019-02-25T22:38:19.139Z,12.63
2019-02-25T22:40:51.088Z,12.67
2019-02-25T22:43:24.241Z,11.07
2019-02-25T22:45:58.069Z,11.57
2019-02-25T22:48:28.930Z,11.43
2019-02-25T22:51:00.717Z,11.80
2019-02-25T22:53:30.560Z,11.40
2019-02-25T22:56:01.430Z,11.20
2019-02-25T22:58:33.733Z,11.17
2019-02-25T23:01:07.347Z,11.03
2019-02-25T23:03:42.952Z,10.97
2019-02-25T23:06:13.463Z,11.23
2019-02-25T23:08:44.763Z,11.10
2019-02-25T23:11:19.790Z,11.67
2019-02-25T23:13:51.989Z,11.07
2019-02-25T23:16:24.872Z,11.20
2019-02-25T23:18:53.637Z,10.90
2019-02-25T23:21:26.469Z,10.57
2019-02-25T23:23:58.084Z,11.00
2019-02-25T23:26:30.075Z,10.87
2019-02-25T23:29:00.271Z,11.30
2019-02-25T23:31:31.617Z,10.77
2019-02-25T23:34:02.602Z,11.27
2019-02-25T23:36:34.453Z,10.37
2019-02-25T23:39:05.448Z,11.03
2019-02-25T23:41:36.620Z,11.13
2019-02-25T23:44:10.837Z,10.87
2019-02-25T23:46:40.401Z,10.10
2019-02-25T23:49:11.149Z,10.13
2019-02-25T23:51:43.660Z,10.33
2019-02-25T23:54:15.977Z,9.87
2019-02-25T23:56:47.716Z,9.97
2019-02-25T23:59:19.326Z,10.17
